Latest Weather Observations for Tunnack

IDT60801

Issued at 5:05 am EST Tuesday 2 September 2014 (issued every 30 minutes, with the page automatically refreshed every 10 minutes)

About weather observations | Map of weather stations | Latest weather observations for TAS | Other Formats
Station Details ID: 094195 Name: TUNNACK FIRE STATION Lat: -42.45 Lon: 147.46 Height: 461.5 m
Data from the previous 72 hours. | See also: Recent months at Tunnack
Date/Time
EST
Temp
°C
App
Temp
°C
Dew
Point
Rel
Hum
%
Delta-T
°C
Wind Press
QNH
hPa
Press
MSL
hPa
Rain
since 9 am
mm
Dir
 
Spd
km/h
Gust
km/h
Spd
kts
Gust
kts
02/05:00am 3.6 -1.4 3.5 99 0.0 SSW 19 24 10 13 1013.4 1014.0 9.0
02/04:30am 3.7 -1.3 3.6 99 0.0 SSW 19 26 10 14 1012.9 1013.4 9.0
02/04:00am 3.9 -0.7 3.8 99 0.0 S 17 20 9 11 1012.6 1013.1 8.8
02/03:30am 3.4 -0.5 3.3 99 0.0 SSW 13 15 7 8 1012.1 1012.7 8.8
02/03:00am 3.5 -0.8 3.4 99 0.0 SSW 15 19 8 10 1012.0 1012.6 8.8
02/02:30am 2.4 -0.6 2.3 99 0.0 SSW 7 9 4 5 1011.9 1012.5 8.8
02/02:00am 2.7 -0.2 2.6 99 0.0 SW 7 11 4 6 1011.8 1012.4 8.8
02/01:30am 3.4 -0.5 3.3 99 0.0 SSW 13 15 7 8 1011.6 1012.2 8.8
02/01:00am 4.1 -0.4 4.0 99 0.0 SSW 17 26 9 14 1011.4 1012.0 8.8
02/12:30am 3.9 -0.3 3.8 99 0.0 SSW 15 20 8 11 1011.1 1011.6 8.6
02/12:00am 4.2 0.1 4.1 99 0.0 SSW 15 24 8 13 1011.1 1011.6 8.6
 
Date/Time
EST
Temp
°C
App
Temp
°C
Dew
Point
Rel
Hum
%
Delta-T
°C
Wind Press
QNH
hPa
Press
MSL
hPa
Rain
since 9 am
mm
Dir
 
Spd
km/h
Gust
km/h
Spd
kts
Gust
kts
01/11:30pm 4.5 1.2 4.4 99 0.0 S 11 15 6 8 1010.7 1011.2 8.4
01/11:00pm 4.1 1.1 4.0 99 0.0 SW 9 13 5 7 1010.4 1010.9 8.2
01/10:30pm 4.6 0.5 4.5 99 0.0 S 15 20 8 11 1009.9 1010.5 8.2
01/10:00pm 4.8 0.8 4.7 99 0.0 SSW 15 20 8 11 1009.8 1010.4 8.2
01/09:30pm 4.6 0.5 4.5 99 0.0 SSW 15 20 8 11 1009.3 1009.8 8.2
01/09:00pm 5.0 0.2 4.9 99 0.0 SSW 19 26 10 14 1009.1 1009.6 8.2
01/08:30pm 5.2 0.9 5.1 99 0.0 S 17 28 9 15 1008.9 1009.4 8.2
01/08:00pm 5.3 0.4 5.2 99 0.0 S 20 30 11 16 1008.1 1008.6 8.2
01/07:30pm 5.5 0.3 5.4 99 0.0 SSW 22 32 12 17 1007.5 1008.0 8.2
01/07:00pm 5.6 -0.4 5.5 99 0.0 S 26 39 14 21 1007.0 1007.5 8.2
01/06:30pm 5.6 0.4 5.6 100 0.0 S 22 35 12 19 1006.3 1006.8 8.2
01/06:00pm 5.7 0.1 5.6 99 0.0 S 24 41 13 22 1005.9 1006.4 8.0
01/05:30pm 5.9 0.4 5.9 100 0.0 S 24 39 13 21 1005.3 1005.8 7.8
01/05:00pm 6.0 0.1 6.0 100 0.0 SSW 26 37 14 20 1004.5 1005.0 7.4
01/04:30pm 6.1 0.2 6.0 99 0.0 S 26 39 14 21 1004.1 1004.6 6.8
01/04:00pm 6.4 0.2 6.3 99 0.0 S 28 48 15 26 1003.4 1003.8 6.0
01/03:54pm 6.4 0.2 6.3 99 0.0 S 28 48 15 26 1003.1 1003.6 5.8
01/03:30pm 7.3 3.0 7.2 99 0.0 S 19 35 10 19 1002.8 1003.3 4.8
01/03:00pm 8.6 5.0 8.5 99 0.0 W 17 26 9 14 1002.3 1002.8 3.0
01/02:30pm 9.0 5.9 8.9 99 0.1 W 15 20 8 11 1002.2 1002.7 2.4
01/02:00pm 9.3 6.3 9.2 99 0.1 WNW 15 22 8 12 1001.9 1002.3 2.0
01/01:30pm 10.1 4.7 9.6 97 0.3 NNW 28 35 15 19 1001.5 1001.9 0.4
01/01:00pm 11.0 3.6 8.2 83 1.4 N 37 52 20 28 1001.4 1001.8 0.0
01/12:31pm 11.3 4.2 8.2 81 1.6 N 35 54 19 29 1001.6 1002.0 0.0
01/12:30pm 11.4 4.4 8.4 82 1.5 N 35 50 19 27 1001.6 1002.0 0.0
01/12:00pm 11.2 3.6 9.1 87 1.1 N 39 54 21 29 1001.8 1002.2 0.0
01/11:47am 11.5 5.8 8.5 82 1.5 N 28 46 15 25 1001.8 1002.2 0.0
01/11:30am 11.1 4.6 9.0 87 1.1 N 33 46 18 25 1001.8 1002.2 0.0
01/11:00am 11.2 3.5 8.8 85 1.2 N 39 54 21 29 1002.2 1002.7 0.0
01/10:30am 11.0 3.8 9.1 88 1.0 N 37 48 20 26 1002.4 1002.9 0.0
01/10:00am 10.8 4.3 8.9 88 1.0 N 33 44 18 24 1002.7 1003.2 0.0
01/09:41am 10.8 3.9 8.7 87 1.1 N 35 54 19 29 1003.0 1003.8 0.0
01/09:30am 10.6 4.7 8.9 89 0.9 N 30 43 16 23 1003.1 1003.9 0.0
01/09:00am 9.9 5.5 9.1 95 0.4 N 22 32 12 17 1003.6 1004.3 0.0
01/08:30am 10.0 5.5 8.6 91 0.7 N 22 32 12 17 1003.9 1004.7 0.0
01/08:00am 8.9 3.7 8.8 99 0.1 N 26 35 14 19 1004.2 1005.0 0.0
01/07:30am 8.6 2.9 8.5 99 0.0 N 28 41 15 22 1004.3 1005.1 0.0
01/07:00am 8.8 3.2 8.7 99 0.1 N 28 39 15 21 1004.6 1005.4 0.0
01/06:30am 9.0 3.0 8.7 98 0.1 N 30 41 16 22 1004.9 1005.7 0.0
01/06:00am 8.8 4.0 8.7 99 0.1 N 24 33 13 18 1005.1 1005.9 0.0
01/05:30am 8.7 3.8 8.3 97 0.2 N 24 32 13 17 1005.2 1006.0 0.0
01/05:00am 8.7 4.5 8.3 97 0.2 N 20 30 11 16 1005.4 1006.2 0.0
01/04:30am 9.0 3.1 7.6 91 0.7 N 28 35 15 19 1005.8 1006.6 0.0
01/04:00am 9.8 3.2 7.6 86 1.1 N 32 44 17 24 1006.0 1006.8 0.0
01/03:30am 9.7 2.9 7.5 86 1.1 N 33 44 18 24 1006.2 1007.0 0.0
01/03:14am 9.7 3.1 7.8 88 0.9 N 32 50 17 27 1006.2 1007.0 0.0
01/03:00am 9.4 2.6 7.7 89 0.8 N 33 46 18 25 1006.2 1007.0 0.0
01/02:48am 9.2 3.3 7.6 90 0.8 N 28 46 15 25 1006.4 1007.2 0.0
01/02:30am 9.0 2.7 7.5 90 0.7 N 30 41 16 22 1006.7 1007.5 0.0
01/02:20am 9.5 3.3 7.8 89 0.8 N 30 52 16 28 1006.8 1007.6 0.0
01/02:00am 8.9 4.1 7.5 91 0.7 N 22 32 12 17 1007.2 1008.0 0.0
01/01:30am 9.0 4.2 7.3 89 0.8 N 22 35 12 19 1008.2 1009.0 0.0
01/01:00am 9.1 3.8 6.9 86 1.1 N 24 35 13 19 1008.6 1009.4 0.0
01/12:30am 10.2 3.3 6.5 78 1.8 N 32 46 17 25 1008.8 1009.6 0.0
01/12:00am 10.7 3.8 6.6 76 2.0 N 32 43 17 23 1008.8 1009.6 0.0
 
Date/Time
EST
Temp
°C
App
Temp
°C
Dew
Point
Rel
Hum
%
Delta-T
°C
Wind Press
QNH
hPa
Press
MSL
hPa
Rain
since 9 am
mm
Dir
 
Spd
km/h
Gust
km/h
Spd
kts
Gust
kts
31/11:30pm 10.5 4.4 6.8 78 1.8 N 28 37 15 20 1009.3 1010.1 0.0
31/11:00pm 10.0 4.3 6.9 81 1.5 N 26 35 14 19 1009.6 1010.5 0.0
31/10:30pm 10.3 2.9 6.8 79 1.7 N 35 46 19 25 1009.9 1010.8 0.0
31/10:00pm 10.1 2.4 7.3 83 1.4 N 37 48 20 26 1010.3 1011.1 0.0
31/09:30pm 10.2 2.2 7.6 84 1.3 N 39 50 21 27 1010.7 1011.5 0.0
31/09:00pm 10.3 3.2 7.9 85 1.2 N 35 48 19 26 1010.9 1011.7 0.0
31/08:30pm 10.2 3.5 8.3 88 0.9 N 33 46 18 25 1011.2 1012.1 0.0
31/08:00pm 10.1 3.5 8.7 91 0.7 N 33 46 18 25 1011.4 1012.3 0.0
31/07:30pm 10.2 3.7 9.1 93 0.6 N 33 44 18 24 1011.5 1012.4 0.0
31/07:00pm 10.0 4.8 8.8 92 0.6 N 26 37 14 20 1011.7 1012.6 0.0
31/06:30pm 10.0 5.6 8.9 93 0.6 N 22 30 12 16 1012.0 1012.9 0.0
31/06:00pm 10.0 5.6 8.9 93 0.6 N 22 32 12 17 1011.9 1012.8 0.0
31/05:30pm 10.3 5.9 9.1 92 0.6 N 22 32 12 17 1012.0 1012.9 0.0
31/05:00pm 10.3 6.5 9.2 93 0.6 N 19 24 10 13 1012.2 1013.1 0.0
31/04:30pm 10.8 6.8 8.9 88 1.0 N 20 30 11 16 1012.5 1013.3 0.0
31/04:00pm 11.3 5.4 8.9 85 1.2 N 30 41 16 22 1012.5 1013.3 0.0
31/03:30pm 12.5 6.6 9.1 80 1.8 N 30 43 16 23 1012.5 1013.3 0.0
31/03:00pm 13.1 7.2 9.0 76 2.1 N 30 43 16 23 1012.7 1013.5 0.0
31/02:30pm 13.4 7.6 9.3 76 2.1 N 30 41 16 22 1012.9 1013.7 0.0
31/02:00pm 13.5 8.0 9.0 74 2.3 N 28 39 15 21 1013.2 1014.1 0.0
31/01:30pm 13.2 6.7 8.9 75 2.2 N 33 43 18 23 1013.6 1014.5 0.0
31/01:00pm 13.2 7.6 8.9 75 2.2 N 28 39 15 21 1013.8 1014.7 0.0
31/12:30pm 13.7 8.6 9.2 74 2.3 N 26 35 14 19 1014.3 1015.2 0.0
31/12:00pm 12.9 7.1 9.4 79 1.8 N 30 37 16 20 1014.9 1015.8 0.0
31/11:30am 12.7 6.9 9.5 81 1.7 N 30 39 16 21 1015.3 1016.2 0.0
31/11:00am 11.8 6.2 8.6 81 1.6 N 28 44 15 24 1015.8 1016.7 0.0
31/10:30am 11.2 6.2 9.6 90 0.8 N 26 41 14 22 1016.1 1017.0 0.0
31/10:00am 9.8 5.5 9.2 96 0.3 N 22 37 12 20 1016.5 1017.4 0.0
31/09:30am 8.7 3.1 8.6 99 0.0 N 28 37 15 20 1016.8 1017.8 0.0
31/09:00am 8.0 3.0 7.9 99 0.0 N 24 35 13 19 1017.1 1018.0 0.0
31/08:30am 7.2 2.9 7.2 100 0.0 N 19 32 10 17 1017.3 1018.2 0.0
31/08:00am 6.6 2.2 6.6 100 0.0 N 19 26 10 14 1017.4 1018.3 0.0
31/07:30am 6.1 1.6 6.1 100 0.0 N 19 26 10 14 1017.3 1018.2 0.0
31/07:00am 5.7 0.9 5.7 100 0.0 N 20 28 11 15 1017.2 1018.1 0.0
31/06:30am 5.9 1.4 5.9 100 0.0 N 19 26 10 14 1017.2 1018.1 0.0
31/06:00am 5.9 1.1 5.8 99 0.0 N 20 32 11 17 1017.3 1018.2 0.0
31/05:30am 6.0 1.3 5.9 99 0.0 N 20 30 11 16 1017.4 1018.3 0.0
31/05:00am 5.9 1.3 5.8 99 0.0 N 19 30 10 16 1017.4 1018.3 0.0
31/04:30am 5.9 2.1 5.8 99 0.0 N 15 20 8 11 1017.7 1018.6 0.0
31/04:00am 5.6 2.1 5.5 99 0.0 N 13 26 7 14 1017.8 1018.7 0.0
31/03:30am 5.7 1.1 5.6 99 0.0 N 19 30 10 16 1018.1 1019.0 0.0
31/03:00am 5.7 1.1 5.6 99 0.0 N 19 28 10 15 1018.5 1019.5 0.0
31/02:30am 5.8 1.6 5.7 99 0.0 N 17 24 9 13 1019.0 1020.0 0.0
31/02:00am 5.6 2.5 5.5 99 0.0 N 11 20 6 11 1019.4 1020.3 0.0
31/01:30am 5.9 2.4 5.3 96 0.3 N 13 20 7 11 1019.7 1020.6 0.0
31/01:00am 6.3 4.0 5.6 95 0.3 NNE 7 13 4 7 1020.1 1021.0 0.0
31/12:30am 6.3 4.5 5.3 93 0.5 E 4 11 2 6 1020.2 1021.1 0.0
31/12:00am 6.5 3.7 5.1 91 0.6 NNE 9 17 5 9 1020.6 1021.6 0.0
 
Date/Time
EST
Temp
°C
App
Temp
°C
Dew
Point
Rel
Hum
%
Delta-T
°C
Wind Press
QNH
hPa
Press
MSL
hPa
Rain
since 9 am
mm
Dir
 
Spd
km/h
Gust
km/h
Spd
kts
Gust
kts
30/11:30pm 7.0 2.7 5.2 88 0.8 NNW 17 24 9 13 1020.8 1021.8 0.0
30/11:00pm 7.3 2.7 5.4 88 0.9 N 19 32 10 17 1021.2 1022.2 0.0
30/10:30pm 6.5 3.1 4.2 85 1.0 N 11 17 6 9 1022.1 1023.1 0.0
30/10:00pm 6.6 2.8 3.9 83 1.2 NNE 13 19 7 10 1022.5 1023.5 0.0
30/09:30pm 6.9 3.3 5.2 89 0.8 N 13 20 7 11 1022.7 1023.7 0.0
30/09:00pm 6.3 3.0 4.5 88 0.8 N 11 17 6 9 1022.7 1023.7 0.0
30/08:30pm 7.1 4.2 4.6 84 1.1 N 9 15 5 8 1022.8 1023.8 0.0
30/08:00pm 7.9 4.3 5.0 82 1.3 N 13 15 7 8 1022.7 1023.7 0.0
30/07:30pm 7.7 4.1 5.0 83 1.2 NNE 13 15 7 8 1022.7 1023.7 0.0
30/07:00pm 8.5 4.5 5.1 79 1.6 NNE 15 17 8 9 1022.7 1023.7 0.0
30/06:30pm 8.7 4.7 4.9 77 1.7 NNE 15 20 8 11 1022.8 1023.8 0.0
30/06:00pm 9.7 5.4 5.1 73 2.1 NNE 17 24 9 13 1022.9 1023.9 0.0
30/05:30pm 10.6 6.4 5.6 71 2.4 N 17 20 9 11 1023.1 1024.1 0.0
30/05:00pm 11.4 6.3 5.9 69 2.6 N 22 28 12 15 1023.4 1024.4 0.0
30/04:30pm 12.0 6.9 5.9 66 2.9 N 22 30 12 16 1023.4 1024.4 0.0
30/04:00pm 12.5 7.0 5.9 64 3.2 N 24 32 13 17 1023.4 1024.4 0.0
30/03:30pm 13.1 7.7 6.5 64 3.2 N 24 32 13 17 1023.7 1024.7 0.0
30/03:00pm 12.4 6.1 5.8 64 3.2 N 28 35 15 19 1024.0 1025.0 0.0
30/02:30pm 13.2 7.5 6.8 65 3.2 N 26 35 14 19 1024.3 1025.3 0.0
30/02:00pm 12.8 6.7 6.6 66 3.0 N 28 35 15 19 1024.7 1025.7 0.0
30/01:30pm 12.6 7.6 6.4 66 3.0 N 22 35 12 19 1024.9 1025.9 0.0
30/01:00pm 11.7 6.3 6.2 69 2.6 N 24 35 13 19 1025.3 1026.3 0.0
30/12:30pm 12.0 5.9 6.5 69 2.7 N 28 43 15 23 1025.6 1026.6 0.0
30/12:00pm 11.3 4.5 7.0 75 2.1 N 32 44 17 24 1026.3 1027.3 0.0
30/11:30am 11.0 5.1 7.5 79 1.7 N 28 37 15 20 1026.7 1027.7 0.0
30/11:00am 10.8 5.2 7.3 79 1.7 N 26 39 14 21 1027.0 1028.0 0.0
30/10:30am 9.5 4.5 8.1 91 0.7 N 24 32 13 17 1027.5 1028.6 0.0
30/10:00am 9.0 4.9 7.8 92 0.6 N 19 26 10 14 1027.7 1028.8 0.0
30/09:30am 10.1 6.1 8.2 88 0.9 NNE 19 26 10 14 1027.9 1029.0 0.0
30/09:00am 9.4 6.3 8.9 97 0.2 N 15 20 8 11 1028.1 1029.2 0.0
30/08:30am 8.5 4.9 8.4 99 0.0 N 17 24 9 13 1028.5 1029.5 0.0
30/08:00am 8.3 6.2 8.3 100 0.0 NNE 9 15 5 8 1028.5 1029.5 0.0
30/07:30am 6.9 4.5 6.9 100 0.0 NNE 9 13 5 7 1028.5 1029.5 0.0
30/07:00am 5.6 2.9 5.6 100 0.0 N 9 15 5 8 1028.5 1029.5 0.0
30/06:30am 5.0 1.8 5.0 100 0.0 N 11 13 6 7 1028.3 1029.4 0.0
30/06:00am 4.5 0.4 4.5 100 0.0 N 15 20 8 11 1028.3 1029.4 0.0
30/05:30am 3.6 -0.6 3.6 100 0.0 N 15 17 8 9 1028.2 1029.3 0.0

Other Formats:

Comma delimited format used in spreadsheet applications
http://www.bom.gov.au/fwo/IDT60801/IDT60801.94960.axf

JavaScript Object Notation format (JSON) in row-major order
http://www.bom.gov.au/fwo/IDT60801/IDT60801.94960.json